sensor_id;sensor_type;location;lat;lon;timestamp;temperature;humidity
57552;DHT22;43379;48.160;14.036;2022-10-16T00:02:20;14.80;99.90
57552;DHT22;43379;48.160;14.036;2022-10-16T00:04:45;14.80;99.90
57552;DHT22;43379;48.160;14.036;2022-10-16T00:07:11;14.80;99.90
57552;DHT22;43379;48.160;14.036;2022-10-16T00:09:37;14.90;99.90
57552;DHT22;43379;48.160;14.036;2022-10-16T00:12:03;14.90;99.90
57552;DHT22;43379;48.160;14.036;2022-10-16T00:14:30;14.90;99.90
57552;DHT22;43379;48.160;14.036;2022-10-16T00:16:55;14.90;99.90
57552;DHT22;43379;48.160;14.036;2022-10-16T00:19:21;14.80;99.90
57552;DHT22;43379;48.160;14.036;2022-10-16T00:21:46;14.80;99.90
57552;DHT22;43379;48.160;14.036;2022-10-16T00:24:12;14.80;99.90
57552;DHT22;43379;48.160;14.036;2022-10-16T00:26:39;14.70;99.90
57552;DHT22;43379;48.160;14.036;2022-10-16T00:29:05;14.80;99.90
57552;DHT22;43379;48.160;14.036;2022-10-16T00:31:31;14.80;99.90
57552;DHT22;43379;48.160;14.036;2022-10-16T00:33:57;14.80;99.90
57552;DHT22;43379;48.160;14.036;2022-10-16T00:36:24;14.70;99.90
57552;DHT22;43379;48.160;14.036;2022-10-16T00:38:55;14.70;99.90
57552;DHT22;43379;48.160;14.036;2022-10-16T00:41:23;14.70;99.90
57552;DHT22;43379;48.160;14.036;2022-10-16T00:43:57;14.80;99.90
57552;DHT22;43379;48.160;14.036;2022-10-16T00:46:35;14.80;99.90
57552;DHT22;43379;48.160;14.036;2022-10-16T00:49:13;14.80;99.90
57552;DHT22;43379;48.160;14.036;2022-10-16T00:51:47;14.70;99.90
57552;DHT22;43379;48.160;14.036;2022-10-16T00:54:26;14.80;99.90
57552;DHT22;43379;48.160;14.036;2022-10-16T00:56:53;14.80;99.90
57552;DHT22;43379;48.160;14.036;2022-10-16T00:59:38;14.80;99.90
57552;DHT22;43379;48.160;14.036;2022-10-16T01:02:07;14.80;99.90
57552;DHT22;43379;48.160;14.036;2022-10-16T01:04:47;14.80;99.90
57552;DHT22;43379;48.160;14.036;2022-10-16T01:12:43;14.80;99.90
57552;DHT22;43379;48.160;14.036;2022-10-16T01:15:22;14.80;99.90
57552;DHT22;43379;48.160;14.036;2022-10-16T01:20:31;14.70;99.90
57552;DHT22;43379;48.160;14.036;2022-10-16T01:28:29;14.70;99.90
57552;DHT22;43379;48.160;14.036;2022-10-16T01:30:58;14.60;99.90
57552;DHT22;43379;48.160;14.036;2022-10-16T01:33:39;14.60;99.90
57552;DHT22;43379;48.160;14.036;2022-10-16T01:36:12;14.60;99.90
57552;DHT22;43379;48.160;14.036;2022-10-16T01:38:40;14.60;99.90
57552;DHT22;43379;48.160;14.036;2022-10-16T01:41:31;14.60;99.90
57552;DHT22;43379;48.160;14.036;2022-10-16T01:44:10;14.60;99.90
57552;DHT22;43379;48.160;14.036;2022-10-16T01:46:40;14.60;99.90
57552;DHT22;43379;48.160;14.036;2022-10-16T01:49:07;14.50;99.90
57552;DHT22;43379;48.160;14.036;2022-10-16T01:51:35;14.50;99.90
57552;DHT22;43379;48.160;14.036;2022-10-16T01:54:05;14.50;99.90
57552;DHT22;43379;48.160;14.036;2022-10-16T01:56:31;14.60;99.90
57552;DHT22;43379;48.160;14.036;2022-10-16T01:59:01;14.60;99.90
57552;DHT22;43379;48.160;14.036;2022-10-16T02:01:31;14.60;99.90
57552;DHT22;43379;48.160;14.036;2022-10-16T02:04:04;14.60;99.90
57552;DHT22;43379;48.160;14.036;2022-10-16T02:06:33;14.60;99.90
57552;DHT22;43379;48.160;14.036;2022-10-16T02:09:00;14.60;99.90
57552;DHT22;43379;48.160;14.036;2022-10-16T02:11:25;14.60;99.90
57552;DHT22;43379;48.160;14.036;2022-10-16T02:14:04;14.50;99.90
57552;DHT22;43379;48.160;14.036;2022-10-16T02:16:44;14.50;99.90
57552;DHT22;43379;48.160;14.036;2022-10-16T02:19:12;14.50;99.90
57552;DHT22;43379;48.160;14.036;2022-10-16T02:21:44;14.50;99.90
57552;DHT22;43379;48.160;14.036;2022-10-16T02:29:40;14.40;99.90
57552;DHT22;43379;48.160;14.036;2022-10-16T02:34:39;14.40;99.90
57552;DHT22;43379;48.160;14.036;2022-10-16T02:37:06;14.40;99.90
57552;DHT22;43379;48.160;14.036;2022-10-16T02:39:33;14.30;99.90
57552;DHT22;43379;48.160;14.036;2022-10-16T02:41:59;14.30;99.90
57552;DHT22;43379;48.160;14.036;2022-10-16T02:44:25;14.40;99.90
57552;DHT22;43379;48.160;14.036;2022-10-16T02:46:50;14.40;99.90
57552;DHT22;43379;48.160;14.036;2022-10-16T02:49:16;14.40;99.90
57552;DHT22;43379;48.160;14.036;2022-10-16T02:51:42;14.40;99.90
57552;DHT22;43379;48.160;14.036;2022-10-16T02:54:08;14.40;99.90
57552;DHT22;43379;48.160;14.036;2022-10-16T02:56:33;14.40;99.90
57552;DHT22;43379;48.160;14.036;2022-10-16T02:58:59;14.40;99.90
57552;DHT22;43379;48.160;14.036;2022-10-16T03:01:25;14.30;99.90
57552;DHT22;43379;48.160;14.036;2022-10-16T03:03:50;14.30;99.90
57552;DHT22;43379;48.160;14.036;2022-10-16T03:06:16;14.30;99.90
57552;DHT22;43379;48.160;14.036;2022-10-16T03:08:42;14.30;99.90
57552;DHT22;43379;48.160;14.036;2022-10-16T03:11:07;14.30;99.90
57552;DHT22;43379;48.160;14.036;2022-10-16T03:13:33;14.20;99.90
57552;DHT22;43379;48.160;14.036;2022-10-16T03:15:59;14.20;99.90
57552;DHT22;43379;48.160;14.036;2022-10-16T03:18:24;14.20;99.90
57552;DHT22;43379;48.160;14.036;2022-10-16T03:20:50;14.20;99.90
57552;DHT22;43379;48.160;14.036;2022-10-16T03:23:16;14.20;99.90
57552;DHT22;43379;48.160;14.036;2022-10-16T03:25:41;14.20;99.90
57552;DHT22;43379;48.160;14.036;2022-10-16T03:28:07;14.30;99.90
57552;DHT22;43379;48.160;14.036;2022-10-16T03:30:33;14.20;99.90
57552;DHT22;43379;48.160;14.036;2022-10-16T03:32:58;14.20;99.90
57552;DHT22;43379;48.160;14.036;2022-10-16T03:35:24;14.20;99.90
57552;DHT22;43379;48.160;14.036;2022-10-16T03:37:50;14.20;99.90
57552;DHT22;43379;48.160;14.036;2022-10-16T03:40:17;14.10;99.90
57552;DHT22;43379;48.160;14.036;2022-10-16T03:42:43;14.10;99.90
57552;DHT22;43379;48.160;14.036;2022-10-16T03:45:10;14.10;99.90
57552;DHT22;43379;48.160;14.036;2022-10-16T03:47:35;14.10;99.90
57552;DHT22;43379;48.160;14.036;2022-10-16T03:50:01;14.10;99.90
57552;DHT22;43379;48.160;14.036;2022-10-16T03:52:27;14.00;99.90
57552;DHT22;43379;48.160;14.036;2022-10-16T03:54:52;14.00;99.90
57552;DHT22;43379;48.160;14.036;2022-10-16T03:57:18;14.10;99.90
57552;DHT22;43379;48.160;14.036;2022-10-16T03:59:44;14.00;99.90
57552;DHT22;43379;48.160;14.036;2022-10-16T04:02:09;14.00;99.90
57552;DHT22;43379;48.160;14.036;2022-10-16T04:04:35;14.00;99.90
57552;DHT22;43379;48.160;14.036;2022-10-16T04:07:01;14.00;99.90
57552;DHT22;43379;48.160;14.036;2022-10-16T04:09:26;13.90;99.90
57552;DHT22;43379;48.160;14.036;2022-10-16T04:11:52;13.90;99.90
57552;DHT22;43379;48.160;14.036;2022-10-16T04:14:18;13.90;99.90
57552;DHT22;43379;48.160;14.036;2022-10-16T04:16:43;13.90;99.90
57552;DHT22;43379;48.160;14.036;2022-10-16T04:19:10;13.90;99.90
57552;DHT22;43379;48.160;14.036;2022-10-16T04:21:36;13.90;99.90
57552;DHT22;43379;48.160;14.036;2022-10-16T04:24:02;13.90;99.90
57552;DHT22;43379;48.160;14.036;2022-10-16T04:26:28;13.90;99.90
57552;DHT22;43379;48.160;14.036;2022-10-16T04:28:55;13.90;99.90
57552;DHT22;43379;48.160;14.036;2022-10-16T04:31:20;13.90;99.90
57552;DHT22;43379;48.160;14.036;2022-10-16T04:33:46;13.70;99.90
57552;DHT22;43379;48.160;14.036;2022-10-16T04:36:12;13.70;99.90
57552;DHT22;43379;48.160;14.036;2022-10-16T04:38:38;13.70;99.90
57552;DHT22;43379;48.160;14.036;2022-10-16T04:41:05;13.70;99.90
57552;DHT22;43379;48.160;14.036;2022-10-16T04:43:31;13.70;99.90
57552;DHT22;43379;48.160;14.036;2022-10-16T04:45:57;13.80;99.90
57552;DHT22;43379;48.160;14.036;2022-10-16T04:48:23;13.70;99.90
57552;DHT22;43379;48.160;14.036;2022-10-16T04:50:48;13.80;99.90
57552;DHT22;43379;48.160;14.036;2022-10-16T04:53:14;13.70;99.90
57552;DHT22;43379;48.160;14.036;2022-10-16T04:55:41;13.70;99.90
57552;DHT22;43379;48.160;14.036;2022-10-16T04:58:07;13.80;99.90
57552;DHT22;43379;48.160;14.036;2022-10-16T05:00:33;13.80;99.90
57552;DHT22;43379;48.160;14.036;2022-10-16T05:02:59;13.80;99.90
57552;DHT22;43379;48.160;14.036;2022-10-16T05:05:26;13.80;99.90
57552;DHT22;43379;48.160;14.036;2022-10-16T05:07:52;13.70;99.90
57552;DHT22;43379;48.160;14.036;2022-10-16T05:10:18;13.80;99.90
57552;DHT22;43379;48.160;14.036;2022-10-16T05:12:44;13.70;99.90
57552;DHT22;43379;48.160;14.036;2022-10-16T05:15:10;13.70;99.90
57552;DHT22;43379;48.160;14.036;2022-10-16T05:17:36;13.70;99.90
57552;DHT22;43379;48.160;14.036;2022-10-16T05:20:02;13.70;99.90
57552;DHT22;43379;48.160;14.036;2022-10-16T05:22:28;13.70;99.90
57552;DHT22;43379;48.160;14.036;2022-10-16T05:24:54;13.70;99.90
57552;DHT22;43379;48.160;14.036;2022-10-16T05:27:20;13.70;99.90
57552;DHT22;43379;48.160;14.036;2022-10-16T05:29:47;13.70;99.90
57552;DHT22;43379;48.160;14.036;2022-10-16T05:32:14;13.70;99.90
57552;DHT22;43379;48.160;14.036;2022-10-16T05:34:39;13.70;99.90
57552;DHT22;43379;48.160;14.036;2022-10-16T05:37:05;13.70;99.90
57552;DHT22;43379;48.160;14.036;2022-10-16T05:39:31;13.70;99.90
57552;DHT22;43379;48.160;14.036;2022-10-16T05:41:57;13.70;99.90
57552;DHT22;43379;48.160;14.036;2022-10-16T05:44:22;13.70;99.90
57552;DHT22;43379;48.160;14.036;2022-10-16T05:46:48;13.70;99.90
57552;DHT22;43379;48.160;14.036;2022-10-16T05:49:14;13.80;99.90
57552;DHT22;43379;48.160;14.036;2022-10-16T05:51:40;13.70;99.90
57552;DHT22;43379;48.160;14.036;2022-10-16T05:54:06;13.80;99.90
57552;DHT22;43379;48.160;14.036;2022-10-16T05:56:32;13.80;99.90
57552;DHT22;43379;48.160;14.036;2022-10-16T05:58:58;13.70;99.90
57552;DHT22;43379;48.160;14.036;2022-10-16T06:01:23;13.60;99.90
57552;DHT22;43379;48.160;14.036;2022-10-16T06:03:51;13.60;99.90
57552;DHT22;43379;48.160;14.036;2022-10-16T06:06:19;13.60;99.90
57552;DHT22;43379;48.160;14.036;2022-10-16T06:08:46;13.70;99.90
57552;DHT22;43379;48.160;14.036;2022-10-16T06:11:14;13.70;99.90
57552;DHT22;43379;48.160;14.036;2022-10-16T06:13:40;13.70;99.90
57552;DHT22;43379;48.160;14.036;2022-10-16T06:16:09;13.80;99.90
57552;DHT22;43379;48.160;14.036;2022-10-16T06:18:35;13.70;99.90
57552;DHT22;43379;48.160;14.036;2022-10-16T06:21:10;13.80;99.90
57552;DHT22;43379;48.160;14.036;2022-10-16T06:23:36;13.80;99.90
57552;DHT22;43379;48.160;14.036;2022-10-16T06:26:13;13.80;99.90
57552;DHT22;43379;48.160;14.036;2022-10-16T06:28:40;13.80;99.90
57552;DHT22;43379;48.160;14.036;2022-10-16T06:31:07;13.80;99.90
57552;DHT22;43379;48.160;14.036;2022-10-16T06:33:33;13.80;99.90
57552;DHT22;43379;48.160;14.036;2022-10-16T06:36:03;13.90;99.90
57552;DHT22;43379;48.160;14.036;2022-10-16T06:38:29;14.00;99.90
57552;DHT22;43379;48.160;14.036;2022-10-16T06:40:55;14.00;99.90
57552;DHT22;43379;48.160;14.036;2022-10-16T06:43:21;14.00;99.90
57552;DHT22;43379;48.160;14.036;2022-10-16T06:45:54;14.00;99.90
57552;DHT22;43379;48.160;14.036;2022-10-16T06:48:20;14.10;99.90
57552;DHT22;43379;48.160;14.036;2022-10-16T06:51:06;14.10;99.90
57552;DHT22;43379;48.160;14.036;2022-10-16T06:53:35;14.10;99.90
57552;DHT22;43379;48.160;14.036;2022-10-16T06:58:34;14.30;99.90
57552;DHT22;43379;48.160;14.036;2022-10-16T07:01:00;14.20;99.90
57552;DHT22;43379;48.160;14.036;2022-10-16T07:03:25;14.30;99.90
57552;DHT22;43379;48.160;14.036;2022-10-16T07:05:51;14.30;99.90
57552;DHT22;43379;48.160;14.036;2022-10-16T07:08:17;14.30;99.90
57552;DHT22;43379;48.160;14.036;2022-10-16T07:10:42;14.30;99.90
57552;DHT22;43379;48.160;14.036;2022-10-16T07:13:08;14.30;99.90
57552;DHT22;43379;48.160;14.036;2022-10-16T07:15:34;14.30;99.90
57552;DHT22;43379;48.160;14.036;2022-10-16T07:17:59;14.40;99.90
57552;DHT22;43379;48.160;14.036;2022-10-16T07:20:25;14.50;99.90
57552;DHT22;43379;48.160;14.036;2022-10-16T07:22:52;14.60;99.90
57552;DHT22;43379;48.160;14.036;2022-10-16T07:25:17;14.60;99.90
57552;DHT22;43379;48.160;14.036;2022-10-16T07:27:43;14.70;99.90
57552;DHT22;43379;48.160;14.036;2022-10-16T07:30:09;14.70;99.90
57552;DHT22;43379;48.160;14.036;2022-10-16T07:32:35;14.80;99.90
57552;DHT22;43379;48.160;14.036;2022-10-16T07:35:00;14.90;99.90
57552;DHT22;43379;48.160;14.036;2022-10-16T07:37:26;14.90;99.90
57552;DHT22;43379;48.160;14.036;2022-10-16T07:39:52;14.90;99.90
57552;DHT22;43379;48.160;14.036;2022-10-16T07:42:17;15.00;99.90
57552;DHT22;43379;48.160;14.036;2022-10-16T07:44:43;15.10;99.90
57552;DHT22;43379;48.160;14.036;2022-10-16T07:47:09;15.20;99.90
57552;DHT22;43379;48.160;14.036;2022-10-16T07:49:34;15.20;99.90
57552;DHT22;43379;48.160;14.036;2022-10-16T07:52:00;15.20;99.90
57552;DHT22;43379;48.160;14.036;2022-10-16T07:54:25;15.40;99.90
57552;DHT22;43379;48.160;14.036;2022-10-16T07:56:51;15.40;99.90
57552;DHT22;43379;48.160;14.036;2022-10-16T07:59:17;15.50;99.90
57552;DHT22;43379;48.160;14.036;2022-10-16T08:01:43;15.50;99.90
57552;DHT22;43379;48.160;14.036;2022-10-16T08:04:11;15.50;99.90
57552;DHT22;43379;48.160;14.036;2022-10-16T08:06:38;15.50;99.90
57552;DHT22;43379;48.160;14.036;2022-10-16T08:09:05;15.50;99.90
57552;DHT22;43379;48.160;14.036;2022-10-16T08:11:32;15.70;99.90
57552;DHT22;43379;48.160;14.036;2022-10-16T08:13:57;16.00;99.90
57552;DHT22;43379;48.160;14.036;2022-10-16T08:16:23;16.40;99.90
57552;DHT22;43379;48.160;14.036;2022-10-16T08:18:49;16.40;99.90
57552;DHT22;43379;48.160;14.036;2022-10-16T08:21:18;16.40;99.90
57552;DHT22;43379;48.160;14.036;2022-10-16T08:23:44;16.30;99.90
57552;DHT22;43379;48.160;14.036;2022-10-16T08:26:11;16.20;99.90
57552;DHT22;43379;48.160;14.036;2022-10-16T08:28:38;16.30;99.90
57552;DHT22;43379;48.160;14.036;2022-10-16T08:31:12;16.40;99.90
57552;DHT22;43379;48.160;14.036;2022-10-16T08:33:39;16.50;99.90
57552;DHT22;43379;48.160;14.036;2022-10-16T08:36:06;16.40;99.90
57552;DHT22;43379;48.160;14.036;2022-10-16T08:38:32;16.30;99.90
57552;DHT22;43379;48.160;14.036;2022-10-16T08:46:34;16.10;99.90
57552;DHT22;43379;48.160;14.036;2022-10-16T08:49:03;16.10;99.90
57552;DHT22;43379;48.160;14.036;2022-10-16T08:51:36;16.00;99.90
57552;DHT22;43379;48.160;14.036;2022-10-16T08:54:11;16.10;99.90
57552;DHT22;43379;48.160;14.036;2022-10-16T08:56:41;16.10;99.90
57552;DHT22;43379;48.160;14.036;2022-10-16T08:59:10;16.20;99.90
57552;DHT22;43379;48.160;14.036;2022-10-16T09:01:47;16.40;99.90
57552;DHT22;43379;48.160;14.036;2022-10-16T09:07:09;16.80;99.90
57552;DHT22;43379;48.160;14.036;2022-10-16T09:09:44;18.10;99.90
57552;DHT22;43379;48.160;14.036;2022-10-16T09:12:31;19.70;99.90
57552;DHT22;43379;48.160;14.036;2022-10-16T09:15:08;21.70;99.90
57552;DHT22;43379;48.160;14.036;2022-10-16T09:20:53;22.80;99.90
57552;DHT22;43379;48.160;14.036;2022-10-16T09:23:27;23.10;99.90
57552;DHT22;43379;48.160;14.036;2022-10-16T09:25:55;23.50;99.90
57552;DHT22;43379;48.160;14.036;2022-10-16T09:28:21;24.70;99.90
57552;DHT22;43379;48.160;14.036;2022-10-16T09:30:47;25.80;99.70
57552;DHT22;43379;48.160;14.036;2022-10-16T09:33:18;26.00;97.50
57552;DHT22;43379;48.160;14.036;2022-10-16T09:35:55;25.70;96.90
57552;DHT22;43379;48.160;14.036;2022-10-16T09:38:34;25.50;98.30
57552;DHT22;43379;48.160;14.036;2022-10-16T09:41:10;25.90;97.20
57552;DHT22;43379;48.160;14.036;2022-10-16T09:43:40;26.50;97.00
57552;DHT22;43379;48.160;14.036;2022-10-16T09:46:08;26.90;96.00
57552;DHT22;43379;48.160;14.036;2022-10-16T09:48:43;27.50;94.80
57552;DHT22;43379;48.160;14.036;2022-10-16T09:51:29;28.40;94.30
57552;DHT22;43379;48.160;14.036;2022-10-16T09:54:16;28.70;92.00
57552;DHT22;43379;48.160;14.036;2022-10-16T09:56:42;28.80;90.90
57552;DHT22;43379;48.160;14.036;2022-10-16T09:59:13;28.30;92.10
57552;DHT22;43379;48.160;14.036;2022-10-16T10:01:41;27.90;92.30
57552;DHT22;43379;48.160;14.036;2022-10-16T10:04:08;27.20;92.90
57552;DHT22;43379;48.160;14.036;2022-10-16T10:06:54;26.60;93.50
57552;DHT22;43379;48.160;14.036;2022-10-16T10:09:32;26.30;94.40
57552;DHT22;43379;48.160;14.036;2022-10-16T10:12:01;26.00;94.90
57552;DHT22;43379;48.160;14.036;2022-10-16T10:14:51;25.70;94.60
57552;DHT22;43379;48.160;14.036;2022-10-16T10:17:26;24.90;94.80
57552;DHT22;43379;48.160;14.036;2022-10-16T10:19:55;24.70;96.40
57552;DHT22;43379;48.160;14.036;2022-10-16T10:30:25;24.20;98.00
57552;DHT22;43379;48.160;14.036;2022-10-16T10:35:45;23.80;97.80
57552;DHT22;43379;48.160;14.036;2022-10-16T10:46:05;23.70;99.30
57552;DHT22;43379;48.160;14.036;2022-10-16T10:51:44;23.60;99.70
57552;DHT22;43379;48.160;14.036;2022-10-16T10:57:02;23.30;99.30
57552;DHT22;43379;48.160;14.036;2022-10-16T11:02:15;23.20;99.80
57552;DHT22;43379;48.160;14.036;2022-10-16T11:04:58;23.40;99.90
57552;DHT22;43379;48.160;14.036;2022-10-16T11:07:32;23.50;99.60
57552;DHT22;43379;48.160;14.036;2022-10-16T11:13:29;23.60;99.90
57552;DHT22;43379;48.160;14.036;2022-10-16T11:15:59;23.80;99.90
57552;DHT22;43379;48.160;14.036;2022-10-16T11:20:54;24.00;99.70
57552;DHT22;43379;48.160;14.036;2022-10-16T11:24:00;23.90;99.90
57552;DHT22;43379;48.160;14.036;2022-10-16T11:26:21;24.00;99.90
57552;DHT22;43379;48.160;14.036;2022-10-16T11:28:58;24.00;99.90
57552;DHT22;43379;48.160;14.036;2022-10-16T11:31:32;24.00;99.90
57552;DHT22;43379;48.160;14.036;2022-10-16T11:39:24;23.80;99.90
57552;DHT22;43379;48.160;14.036;2022-10-16T11:42:54;23.80;99.90
57552;DHT22;43379;48.160;14.036;2022-10-16T11:45:04;23.70;99.90
57552;DHT22;43379;48.160;14.036;2022-10-16T11:47:40;23.80;99.90
57552;DHT22;43379;48.160;14.036;2022-10-16T11:50:30;23.70;99.90
57552;DHT22;43379;48.160;14.036;2022-10-16T11:55:53;24.00;99.90
57552;DHT22;43379;48.160;14.036;2022-10-16T12:01:10;24.20;99.90
57552;DHT22;43379;48.160;14.036;2022-10-16T12:03:47;24.30;99.90
57552;DHT22;43379;48.160;14.036;2022-10-16T12:06:40;24.30;99.70
57552;DHT22;43379;48.160;14.036;2022-10-16T12:09:28;24.30;99.00
57552;DHT22;43379;48.160;14.036;2022-10-16T12:11:55;24.30;99.70
57552;DHT22;43379;48.160;14.036;2022-10-16T12:17:01;24.20;99.90
57552;DHT22;43379;48.160;14.036;2022-10-16T12:19:29;24.20;99.70
57552;DHT22;43379;48.160;14.036;2022-10-16T12:22:00;24.20;98.90
57552;DHT22;43379;48.160;14.036;2022-10-16T12:24:32;24.00;98.00
57552;DHT22;43379;48.160;14.036;2022-10-16T12:26:58;23.60;98.60
57552;DHT22;43379;48.160;14.036;2022-10-16T12:29:38;23.60;98.60
57552;DHT22;43379;48.160;14.036;2022-10-16T12:34:50;23.50;99.30
57552;DHT22;43379;48.160;14.036;2022-10-16T12:37:33;23.70;99.90
57552;DHT22;43379;48.160;14.036;2022-10-16T12:40:04;23.80;99.90
57552;DHT22;43379;48.160;14.036;2022-10-16T12:42:36;23.80;99.90
57552;DHT22;43379;48.160;14.036;2022-10-16T12:45:32;23.80;99.70
57552;DHT22;43379;48.160;14.036;2022-10-16T12:48:04;23.90;99.90
57552;DHT22;43379;48.160;14.036;2022-10-16T12:50:43;24.00;99.70
57552;DHT22;43379;48.160;14.036;2022-10-16T12:53:21;23.90;99.40
57552;DHT22;43379;48.160;14.036;2022-10-16T12:56:15;23.90;99.00
57552;DHT22;43379;48.160;14.036;2022-10-16T12:59:01;23.90;99.70
57552;DHT22;43379;48.160;14.036;2022-10-16T13:10:28;24.00;99.10
57552;DHT22;43379;48.160;14.036;2022-10-16T13:21:51;23.80;98.30
57552;DHT22;43379;48.160;14.036;2022-10-16T13:29:31;23.60;97.90
57552;DHT22;43379;48.160;14.036;2022-10-16T13:31:59;23.40;98.40
57552;DHT22;43379;48.160;14.036;2022-10-16T13:34:26;23.40;98.50
57552;DHT22;43379;48.160;14.036;2022-10-16T13:36:53;23.40;99.50
57552;DHT22;43379;48.160;14.036;2022-10-16T13:39:23;23.40;99.20
57552;DHT22;43379;48.160;14.036;2022-10-16T13:42:27;23.50;99.50
57552;DHT22;43379;48.160;14.036;2022-10-16T13:44:54;23.60;99.70
57552;DHT22;43379;48.160;14.036;2022-10-16T13:47:31;23.70;99.80
57552;DHT22;43379;48.160;14.036;2022-10-16T13:50:12;23.70;99.70
57552;DHT22;43379;48.160;14.036;2022-10-16T13:52:38;23.80;99.60
57552;DHT22;43379;48.160;14.036;2022-10-16T13:55:24;23.80;99.30
57552;DHT22;43379;48.160;14.036;2022-10-16T13:57:50;23.80;99.60
57552;DHT22;43379;48.160;14.036;2022-10-16T14:00:24;23.70;99.30
57552;DHT22;43379;48.160;14.036;2022-10-16T14:03:03;23.70;99.40
57552;DHT22;43379;48.160;14.036;2022-10-16T14:05:30;23.70;99.20
57552;DHT22;43379;48.160;14.036;2022-10-16T14:07:56;23.60;99.50
57552;DHT22;43379;48.160;14.036;2022-10-16T14:10:31;23.60;99.60
57552;DHT22;43379;48.160;14.036;2022-10-16T14:13:02;23.60;99.50
57552;DHT22;43379;48.160;14.036;2022-10-16T14:15:30;23.60;99.80
57552;DHT22;43379;48.160;14.036;2022-10-16T14:17:58;23.60;99.90
57552;DHT22;43379;48.160;14.036;2022-10-16T14:20:30;23.50;99.60
57552;DHT22;43379;48.160;14.036;2022-10-16T14:25:44;23.50;99.30
57552;DHT22;43379;48.160;14.036;2022-10-16T14:30:58;23.40;99.60
57552;DHT22;43379;48.160;14.036;2022-10-16T14:33:32;23.30;99.50
57552;DHT22;43379;48.160;14.036;2022-10-16T14:36:13;23.20;99.20
57552;DHT22;43379;48.160;14.036;2022-10-16T14:38:42;23.10;99.40
57552;DHT22;43379;48.160;14.036;2022-10-16T14:41:09;23.00;99.60
57552;DHT22;43379;48.160;14.036;2022-10-16T14:43:41;23.00;99.90
57552;DHT22;43379;48.160;14.036;2022-10-16T14:46:19;23.00;99.70
57552;DHT22;43379;48.160;14.036;2022-10-16T14:48:50;22.90;99.90
57552;DHT22;43379;48.160;14.036;2022-10-16T14:51:19;22.90;99.90
57552;DHT22;43379;48.160;14.036;2022-10-16T14:53:46;22.90;99.90
57552;DHT22;43379;48.160;14.036;2022-10-16T14:56:20;22.80;99.90
57552;DHT22;43379;48.160;14.036;2022-10-16T14:58:47;22.70;99.90
57552;DHT22;43379;48.160;14.036;2022-10-16T15:01:14;22.60;99.90
57552;DHT22;43379;48.160;14.036;2022-10-16T15:03:39;22.60;99.90
57552;DHT22;43379;48.160;14.036;2022-10-16T15:06:11;22.50;99.90
57552;DHT22;43379;48.160;14.036;2022-10-16T15:08:37;22.50;99.90
57552;DHT22;43379;48.160;14.036;2022-10-16T15:11:03;22.50;99.90
57552;DHT22;43379;48.160;14.036;2022-10-16T15:13:29;22.50;99.90
57552;DHT22;43379;48.160;14.036;2022-10-16T15:15:55;22.50;99.90
57552;DHT22;43379;48.160;14.036;2022-10-16T15:18:20;22.50;99.90
57552;DHT22;43379;48.160;14.036;2022-10-16T15:20:50;22.40;99.90
57552;DHT22;43379;48.160;14.036;2022-10-16T15:23:19;22.30;99.90
57552;DHT22;43379;48.160;14.036;2022-10-16T15:28:16;22.20;99.90
57552;DHT22;43379;48.160;14.036;2022-10-16T15:30:42;22.20;99.90
57552;DHT22;43379;48.160;14.036;2022-10-16T15:33:16;22.10;99.90
57552;DHT22;43379;48.160;14.036;2022-10-16T15:35:42;22.00;99.90
57552;DHT22;43379;48.160;14.036;2022-10-16T15:38:12;22.00;99.90
57552;DHT22;43379;48.160;14.036;2022-10-16T15:40:39;22.00;99.90
57552;DHT22;43379;48.160;14.036;2022-10-16T15:43:05;22.00;99.90
57552;DHT22;43379;48.160;14.036;2022-10-16T15:45:31;22.00;99.90
57552;DHT22;43379;48.160;14.036;2022-10-16T15:47:57;21.90;99.90
57552;DHT22;43379;48.160;14.036;2022-10-16T15:50:22;21.90;99.90
57552;DHT22;43379;48.160;14.036;2022-10-16T15:52:50;21.80;99.90
57552;DHT22;43379;48.160;14.036;2022-10-16T15:55:16;21.80;99.90
57552;DHT22;43379;48.160;14.036;2022-10-16T15:57:42;21.80;99.90
57552;DHT22;43379;48.160;14.036;2022-10-16T16:00:14;21.70;99.90
57552;DHT22;43379;48.160;14.036;2022-10-16T16:02:42;21.70;99.90
57552;DHT22;43379;48.160;14.036;2022-10-16T16:05:09;21.60;99.90
57552;DHT22;43379;48.160;14.036;2022-10-16T16:07:36;21.50;99.90
57552;DHT22;43379;48.160;14.036;2022-10-16T16:10:05;21.50;99.90
57552;DHT22;43379;48.160;14.036;2022-10-16T16:12:32;21.40;99.90
57552;DHT22;43379;48.160;14.036;2022-10-16T16:14:58;21.40;99.90
57552;DHT22;43379;48.160;14.036;2022-10-16T16:17:23;21.30;99.90
57552;DHT22;43379;48.160;14.036;2022-10-16T16:19:50;21.30;99.90
57552;DHT22;43379;48.160;14.036;2022-10-16T16:22:15;21.10;99.90
57552;DHT22;43379;48.160;14.036;2022-10-16T16:24:41;21.00;99.90
57552;DHT22;43379;48.160;14.036;2022-10-16T16:27:09;20.90;99.90
57552;DHT22;43379;48.160;14.036;2022-10-16T16:29:35;20.70;99.90
57552;DHT22;43379;48.160;14.036;2022-10-16T16:32:01;20.60;99.90
57552;DHT22;43379;48.160;14.036;2022-10-16T16:34:27;20.50;99.90
57552;DHT22;43379;48.160;14.036;2022-10-16T16:36:54;20.40;99.90
57552;DHT22;43379;48.160;14.036;2022-10-16T16:39:20;20.40;99.90
57552;DHT22;43379;48.160;14.036;2022-10-16T16:41:46;20.30;99.90
57552;DHT22;43379;48.160;14.036;2022-10-16T16:44:13;20.10;99.90
57552;DHT22;43379;48.160;14.036;2022-10-16T16:46:39;20.00;99.90
57552;DHT22;43379;48.160;14.036;2022-10-16T16:49:06;19.90;99.90
57552;DHT22;43379;48.160;14.036;2022-10-16T16:51:32;19.80;99.90
57552;DHT22;43379;48.160;14.036;2022-10-16T16:53:58;19.70;99.90
57552;DHT22;43379;48.160;14.036;2022-10-16T16:56:25;19.60;99.90
57552;DHT22;43379;48.160;14.036;2022-10-16T16:58:53;19.60;99.90
57552;DHT22;43379;48.160;14.036;2022-10-16T17:01:20;19.50;99.90
57552;DHT22;43379;48.160;14.036;2022-10-16T17:03:46;19.40;99.90
57552;DHT22;43379;48.160;14.036;2022-10-16T17:06:14;19.30;99.90
57552;DHT22;43379;48.160;14.036;2022-10-16T17:08:41;19.30;99.90
57552;DHT22;43379;48.160;14.036;2022-10-16T17:11:15;19.30;99.90
57552;DHT22;43379;48.160;14.036;2022-10-16T17:13:41;19.20;99.90
57552;DHT22;43379;48.160;14.036;2022-10-16T17:16:07;19.10;99.90
57552;DHT22;43379;48.160;14.036;2022-10-16T17:18:33;19.10;99.90
57552;DHT22;43379;48.160;14.036;2022-10-16T17:21:01;19.00;99.90
57552;DHT22;43379;48.160;14.036;2022-10-16T17:23:28;18.90;99.90
57552;DHT22;43379;48.160;14.036;2022-10-16T17:25:54;18.90;99.90